Time;durP1;ratioP1;P1;durP2;ratioP2;P2;SDS_P1;SDS_P2;PMS_P1;PMS_P2;Temp;Humidity;BMP_temperature;BMP_pressure;BME280_temperature;BME280_humidity;BME280_pressure;Samples;Min_cycle;Max_cycle;Signal;HPM_P1;HPM_P2
2022/06/05 00:01:00;;;;;;;15.65;14.05;;;;;;;20.46;100.00;96473.72;5043846;28;20479;-47
2022/06/05 00:03:35;;;;;;;16.50;14.38;;;;;;;21.01;100.00;96460.88;5023847;28;22067;-45
2022/06/05 00:06:09;;;;;;;15.30;13.80;;;;;;;20.96;100.00;96455.34;5043873;28;20076;-50
2022/06/05 00:08:46;;;;;;;16.90;15.20;;;;;;;21.01;100.00;96456.34;5044577;28;20069;-46
2022/06/05 00:11:15;;;;;;;15.82;14.13;;;;;;;21.00;100.00;96454.69;5045527;28;20061;-51
2022/06/05 00:13:45;;;;;;;15.90;14.20;;;;;;;20.70;100.00;96461.56;5038720;28;20452;-48
2022/06/05 00:16:15;;;;;;;16.23;14.52;;;;;;;20.48;100.00;96455.59;5042334;28;20538;-51
2022/06/05 00:18:45;;;;;;;16.90;14.73;;;;;;;20.84;100.00;96447.91;5042729;28;20084;-49
2022/06/05 00:21:14;;;;;;;17.60;14.60;;;;;;;20.79;100.00;96446.91;5044334;28;20061;-45
2022/06/05 00:23:43;;;;;;;15.68;14.02;;;;;;;20.79;100.00;96445.06;5039788;28;20068;-48
2022/06/05 00:26:20;;;;;;;18.02;14.75;;;;;;;20.77;100.00;96425.66;5043489;28;20072;-44
2022/06/05 00:28:55;;;;;;;15.95;14.27;;;;;;;20.74;100.00;96436.00;5042823;28;20084;-45
2022/06/05 00:31:29;;;;;;;17.05;14.68;;;;;;;20.79;100.00;96433.53;5037721;28;20065;-50
2022/06/05 00:33:59;;;;;;;20.05;15.23;;;;;;;20.69;100.00;96433.94;5022337;28;20115;-53
2022/06/05 00:36:38;;;;;;;16.73;14.70;;;;;;;20.69;100.00;96436.63;5022978;28;20049;-47
2022/06/05 00:39:11;;;;;;;19.40;14.88;;;;;;;20.77;100.00;96446.28;5024393;28;20061;-51
2022/06/05 00:41:52;;;;;;;18.23;15.57;;;;;;;20.77;100.00;96446.28;5022985;28;20076;-47
2022/06/05 00:44:24;;;;;;;17.70;15.63;;;;;;;20.77;100.00;96447.13;5021622;28;20041;-54
2022/06/05 00:46:53;;;;;;;20.92;17.23;;;;;;;20.76;100.00;96439.28;5029779;28;21846;-47
2022/06/05 00:49:24;;;;;;;18.77;16.27;;;;;;;20.79;100.00;96444.25;5041200;28;20083;-54
2022/06/05 00:51:53;;;;;;;20.52;16.40;;;;;;;20.61;100.00;96445.72;5044077;28;20063;-46
2022/06/05 00:54:21;;;;;;;18.00;16.15;;;;;;;20.45;100.00;96434.56;5040180;28;20064;-47
2022/06/05 00:56:50;;;;;;;19.83;16.63;;;;;;;20.45;100.00;96432.72;5043609;28;20470;-50
2022/06/05 00:59:20;;;;;;;20.08;16.10;;;;;;;20.48;100.00;96434.16;5043540;28;20069;-48
2022/06/05 01:01:49;;;;;;;19.33;16.45;;;;;;;20.42;100.00;96425.09;5044212;28;20443;-47
2022/06/05 01:04:18;;;;;;;18.60;16.67;;;;;;;20.15;100.00;96432.28;5043691;28;20083;-49
2022/06/05 01:06:49;;;;;;;17.98;16.13;;;;;;;20.31;100.00;96429.22;5040633;28;20175;-50
2022/06/05 01:09:17;;;;;;;21.05;16.92;;;;;;;20.43;100.00;96437.44;5043764;28;20560;-47
2022/06/05 01:11:53;;;;;;;21.85;16.85;;;;;;;20.05;100.00;96434.56;5042222;28;20085;-46
2022/06/05 01:14:29;;;;;;;22.92;18.02;;;;;;;20.26;100.00;96420.97;5044883;28;20053;-48
2022/06/05 01:17:03;;;;;;;19.23;16.60;;;;;;;20.02;100.00;96421.56;5041821;28;20064;-46
2022/06/05 01:19:41;;;;;;;19.40;16.30;;;;;;;20.11;100.00;96423.03;5041681;28;20671;-52
2022/06/05 01:22:44;;;;;;;22.13;17.42;;;;;;;20.03;100.00;96424.06;5051587;28;20052;-51
2022/06/05 01:25:36;;;;;;;21.13;16.98;;;;;;;19.94;100.00;96422.59;5044751;28;20139;-45
2022/06/05 01:28:08;;;;;;;18.55;16.63;;;;;;;19.95;100.00;96418.88;5045585;28;20072;-45
2022/06/05 01:30:45;;;;;;;22.45;17.75;;;;;;;20.04;100.00;96420.34;5045602;28;20036;-52
2022/06/05 01:33:17;;;;;;;20.30;17.98;;;;;;;19.86;100.00;96415.59;5040479;28;20186;-49
2022/06/05 01:35:51;;;;;;;21.90;18.10;;;;;;;20.15;100.00;96409.00;5041035;28;20068;-49
2022/06/05 01:38:23;;;;;;;22.83;18.17;;;;;;;20.00;100.00;96399.56;5041067;28;20447;-49
2022/06/05 01:40:55;;;;;;;21.23;18.60;;;;;;;19.85;100.00;96399.72;5041205;28;20072;-46
2022/06/05 01:43:28;;;;;;;20.77;18.55;;;;;;;19.82;100.00;96402.81;5041945;28;20511;-49
2022/06/05 01:46:01;;;;;;;19.33;17.30;;;;;;;19.75;100.00;96402.81;5044056;28;20089;-47
2022/06/05 01:48:34;;;;;;;22.30;19.88;;;;;;;19.77;100.00;96400.75;5041539;28;20065;-46
2022/06/05 01:51:06;;;;;;;20.80;18.25;;;;;;;19.78;100.00;96397.03;5041879;28;20514;-43
2022/06/05 01:53:36;;;;;;;23.52;19.05;;;;;;;19.73;100.00;96391.50;5043840;28;20446;-50
2022/06/05 01:56:10;;;;;;;23.10;19.25;;;;;;;19.76;100.00;96384.91;5040876;28;20091;-47
2022/06/05 01:58:41;;;;;;;20.83;18.63;;;;;;;19.68;100.00;96386.75;5038949;28;20057;-46
2022/06/05 02:01:12;;;;;;;23.50;20.30;;;;;;;19.57;100.00;96383.81;5042812;28;20092;-44
2022/06/05 02:03:44;;;;;;;21.55;19.25;;;;;;;19.59;100.00;96397.81;5040420;28;20594;-49
2022/06/05 02:06:17;;;;;;;24.60;20.08;;;;;;;19.74;100.00;96387.78;5041359;28;20056;-51
2022/06/05 02:08:49;;;;;;;21.52;19.23;;;;;;;19.57;100.00;96386.47;5040820;28;20075;-49
2022/06/05 02:11:21;;;;;;;22.38;20.05;;;;;;;19.75;100.00;96389.44;5040876;28;20069;-47
2022/06/05 02:13:50;;;;;;;21.60;19.42;;;;;;;19.70;100.00;96386.53;5038634;28;20065;-45
2022/06/05 02:16:19;;;;;;;24.38;19.73;;;;;;;19.75;100.00;96385.91;5041353;28;20071;-45
2022/06/05 02:18:48;;;;;;;22.92;19.77;;;;;;;19.70;100.00;96375.03;5036971;28;20087;-45
2022/06/05 02:21:16;;;;;;;23.27;18.92;;;;;;;19.55;100.00;96369.84;5041887;28;20064;-53
2022/06/05 02:23:44;;;;;;;21.70;19.38;;;;;;;19.54;100.00;96368.97;5039631;28;20140;-49
2022/06/05 02:26:13;;;;;;;21.65;19.38;;;;;;;19.64;100.00;96369.44;5040391;28;20287;-45
2022/06/05 02:28:42;;;;;;;24.58;19.42;;;;;;;19.54;100.00;96370.84;5038950;28;20078;-46
2022/06/05 02:31:22;;;;;;;22.83;20.42;;;;;;;19.46;100.00;96361.16;5040661;28;20084;-47
2022/06/05 02:33:57;;;;;;;26.55;19.27;;;;;;;19.33;100.00;96363.81;5042367;28;20084;-45
2022/06/05 02:36:41;;;;;;;25.35;19.98;;;;;;;19.26;100.00;96357.63;5039936;28;20473;-44
2022/06/05 02:39:14;;;;;;;23.63;19.42;;;;;;;19.41;100.00;96352.94;5046034;28;20072;-48
2022/06/05 02:41:44;;;;;;;20.52;18.33;;;;;;;19.34;100.00;96346.72;5043359;28;20064;-52
2022/06/05 02:44:31;;;;;;;21.45;18.10;;;;;;;19.08;100.00;96344.81;5046124;28;20041;-45
2022/06/05 02:47:28;;;;;;;23.52;19.00;;;;;;;19.04;100.00;96343.56;5045500;28;20071;-45
2022/06/05 02:50:02;;;;;;;21.60;19.30;;;;;;;19.17;100.00;96333.75;5028714;28;20061;-48
2022/06/05 02:52:32;;;;;;;22.02;19.15;;;;;;;19.14;100.00;96342.16;5043097;28;20065;-47
2022/06/05 02:55:03;;;;;;;26.03;19.43;;;;;;;19.07;100.00;96327.97;5042230;28;20526;-49
2022/06/05 02:57:33;;;;;;;23.38;19.38;;;;;;;18.96;100.00;96325.88;5044473;28;20403;-47
2022/06/05 03:00:05;;;;;;;25.10;19.63;;;;;;;18.84;100.00;96322.13;5045057;28;20077;-45
2022/06/05 03:05:19;;;;;;;21.60;19.30;;;;;;;18.95;100.00;96310.84;5042880;28;20061;-45
2022/06/05 03:07:47;;;;;;;21.40;19.10;;;;;;;19.03;100.00;96305.34;5044302;28;20065;-50
2022/06/05 03:10:16;;;;;;;20.08;17.85;;;;;;;18.90;100.00;96297.28;5043940;28;20077;-48
2022/06/05 03:12:44;;;;;;;19.70;17.70;;;;;;;18.92;100.00;96296.03;5044806;28;20736;-50
2022/06/05 03:15:15;;;;;;;20.65;18.58;;;;;;;19.00;100.00;96296.91;5044284;28;20064;-45
2022/06/05 03:17:43;;;;;;;;;;;;;;;19.03;100.00;96291.13;5048434;28;20080;-49
2022/06/05 03:20:13;;;;;;;21.10;18.48;;;;;;;19.01;100.00;96280.66;5046262;28;19948;-48
2022/06/05 03:22:41;;;;;;;21.63;18.40;;;;;;;19.00;100.00;96281.69;5045051;28;20079;-46
2022/06/05 03:25:15;;;;;;;20.08;17.67;;;;;;;19.13;100.00;96284.38;5043120;28;20533;-47
2022/06/05 03:27:43;;;;;;;22.50;18.05;;;;;;;19.20;100.00;96277.22;5044276;28;20084;-45
2022/06/05 03:30:14;;;;;;;20.83;18.20;;;;;;;19.17;100.00;96274.94;5041948;28;20068;-48
2022/06/05 03:32:43;;;;;;;18.70;16.80;;;;;;;19.46;100.00;96270.22;5045085;28;20069;-51
2022/06/05 03:35:13;;;;;;;19.20;16.25;;;;;;;19.37;100.00;96266.94;5043448;28;20064;-46
2022/06/05 03:37:41;;;;;;;17.30;15.35;;;;;;;19.34;100.00;96275.38;5046296;28;20459;-46
2022/06/05 03:40:12;;;;;;;18.80;16.67;;;;;;;19.29;100.00;96269.81;5046581;28;20085;-45
2022/06/05 03:42:40;;;;;;;20.30;16.13;;;;;;;19.40;100.00;96266.50;5045826;28;20183;-51
2022/06/05 03:45:14;;;;;;;17.25;15.38;;;;;;;19.62;100.00;96264.47;5046629;28;20091;-48
2022/06/05 03:47:43;;;;;;;17.25;15.25;;;;;;;20.09;100.00;96246.53;5047084;28;20076;-47
2022/06/05 03:50:12;;;;;;;18.40;14.70;;;;;;;20.41;100.00;96246.66;5044631;28;20073;-48
2022/06/05 03:52:41;;;;;;;16.50;13.70;;;;;;;20.41;100.00;96246.66;5045686;28;20076;-50
2022/06/05 03:55:12;;;;;;;16.88;13.20;;;;;;;21.36;100.00;96236.06;5047250;28;20095;-47
2022/06/05 03:57:40;;;;;;;;;;;;;;;21.36;100.00;96236.06;5045810;28;20076;-45
2022/06/05 04:00:10;;;;;;;15.02;12.38;;;;;;;21.54;100.00;96228.09;5046928;28;19964;-44
2022/06/05 04:02:41;;;;;;;12.93;11.02;;;;;;;21.36;100.00;96236.06;5044282;28;20088;-54
2022/06/05 04:05:12;;;;;;;13.65;12.25;;;;;;;21.80;100.00;96239.63;5045449;28;20111;-53
2022/06/05 04:07:40;;;;;;;15.25;12.25;;;;;;;21.62;100.00;96244.97;5043755;28;20091;-50
2022/06/05 04:10:12;;;;;;;13.82;11.27;;;;;;;21.52;100.00;96242.78;5042348;28;20071;-46
2022/06/05 04:12:40;;;;;;;13.07;11.30;;;;;;;;;;5043051;28;20103;-45
2022/06/05 04:15:10;;;;;;;13.57;11.25;;;;;;;21.14;100.00;96237.47;5043210;28;20072;-46
2022/06/05 04:17:40;;;;;;;14.32;11.43;;;;;;;20.89;100.00;96234.69;5042079;28;20558;-50
2022/06/05 04:20:10;;;;;;;13.60;11.60;;;;;;;21.22;100.00;96238.00;5043609;28;20064;-47
2022/06/05 04:22:40;;;;;;;14.05;11.07;;;;;;;20.95;100.00;96233.84;5042832;28;20060;-47
2022/06/05 04:25:11;;;;;;;15.23;12.23;;;;;;;20.67;100.00;96235.03;5040298;28;20065;-46
2022/06/05 04:27:40;;;;;;;12.82;10.48;;;;;;;20.74;100.00;96230.44;5039891;28;20076;-45
2022/06/05 04:30:09;;;;;;;12.00;10.77;;;;;;;20.55;100.00;96229.53;5041785;28;20060;-49
2022/06/05 04:32:37;;;;;;;12.25;10.52;;;;;;;20.53;100.00;96228.09;5044726;28;20072;-49
2022/06/05 04:35:08;;;;;;;14.02;10.48;;;;;;;20.41;100.00;96222.56;5044879;28;20073;-46
2022/06/05 04:37:37;;;;;;;11.63;10.10;;;;;;;20.51;100.00;96222.09;5041610;28;20061;-50
2022/06/05 04:40:07;;;;;;;10.88;9.77;;;;;;;20.69;100.00;96226.78;5046107;28;20478;-46
2022/06/05 04:42:36;;;;;;;10.70;9.30;;;;;;;21.58;100.00;96222.31;5046000;28;20036;-49
2022/06/05 04:45:05;;;;;;;9.88;8.90;;;;;;;21.80;100.00;96215.47;5046353;28;20068;-51
2022/06/05 04:47:34;;;;;;;9.43;8.43;;;;;;;22.97;100.00;96212.69;5047027;28;20072;-51
2022/06/05 04:50:03;;;;;;;9.90;7.78;;;;;;;22.73;100.00;96211.75;5044383;28;20072;-47
2022/06/05 04:52:32;;;;;;;9.35;7.90;;;;;;;23.24;100.00;96206.94;5044850;28;20072;-48
2022/06/05 04:55:01;;;;;;;10.20;7.25;;;;;;;23.17;100.00;96205.16;5046007;28;20486;-47
2022/06/05 04:57:29;;;;;;;10.88;7.47;;;;;;;23.46;100.00;96210.72;5045376;28;20123;-46
2022/06/05 04:59:58;;;;;;;8.50;7.35;;;;;;;23.21;100.00;96213.59;5046397;28;20567;-44
2022/06/05 05:02:26;;;;;;;8.50;7.20;;;;;;;23.06;100.00;96205.97;5041659;28;20543;-46
2022/06/05 05:04:57;;;;;;;9.27;7.25;;;;;;;23.65;100.00;96203.38;5043528;28;20072;-50
2022/06/05 05:07:25;;;;;;;7.95;6.78;;;;;;;23.58;100.00;96200.78;5044976;28;20068;-48
2022/06/05 05:09:55;;;;;;;8.13;7.32;;;;;;;23.26;100.00;96180.59;5044603;28;20077;-45
2022/06/05 05:12:23;;;;;;;8.20;7.40;;;;;;;23.39;100.00;96172.31;5045144;28;20476;-47
2022/06/05 05:14:52;;;;;;;8.63;7.55;;;;;;;23.46;100.00;96168.47;5046430;28;20467;-50
2022/06/05 05:17:21;;;;;;;9.27;7.60;;;;;;;23.43;100.00;96178.88;5043652;28;20057;-51
2022/06/05 05:19:49;;;;;;;12.98;7.63;;;;;;;23.98;100.00;96172.34;5045916;28;20076;-49
2022/06/05 05:22:18;;;;;;;10.68;7.50;;;;;;;23.71;100.00;96169.31;5044078;28;20087;-46
2022/06/05 05:24:47;;;;;;;9.38;8.18;;;;;;;23.42;100.00;96169.97;5043388;28;20080;-43
2022/06/05 05:27:17;;;;;;;9.93;7.80;;;;;;;23.28;100.00;96173.94;5045364;28;20068;-48
2022/06/05 05:29:45;;;;;;;10.43;7.47;;;;;;;23.83;100.00;96168.28;5043447;28;20073;-45
2022/06/05 05:32:13;;;;;;;8.32;7.25;;;;;;;23.59;100.00;96172.81;5040807;28;20119;-44
2022/06/05 05:34:42;;;;;;;10.02;7.43;;;;;;;23.52;100.00;96174.78;5041482;28;20056;-46
2022/06/05 05:37:10;;;;;;;8.45;7.65;;;;;;;23.65;100.00;96169.19;5038522;28;20099;-47
2022/06/05 05:42:26;;;;;;;8.60;7.57;;;;;;;23.33;100.00;96147.19;5042569;28;20596;-54
2022/06/05 05:44:54;;;;;;;9.98;7.60;;;;;;;24.14;100.00;96140.09;5045567;28;20060;-49
2022/06/05 05:47:24;;;;;;;7.60;6.80;;;;;;;23.60;100.00;96138.63;5044978;28;20065;-51
2022/06/05 05:49:53;;;;;;;7.60;6.80;;;;;;;23.74;100.00;96137.34;5043683;28;20068;-50
2022/06/05 05:52:23;;;;;;;7.47;6.78;;;;;;;23.71;100.00;96135.16;5046443;28;20714;-47
2022/06/05 05:54:51;;;;;;;7.55;6.63;;;;;;;23.30;100.00;96133.38;5043920;28;20073;-45
2022/06/05 05:57:20;;;;;;;8.63;7.18;;;;;;;23.73;100.00;96121.44;5045479;28;20076;-45
2022/06/05 05:59:50;;;;;;;7.53;6.55;;;;;;;22.77;100.00;96121.53;5043910;28;20065;-45
2022/06/05 06:02:21;;;;;;;12.77;7.00;;;;;;;23.02;100.00;96118.72;5042735;28;20471;-45
2022/06/05 06:04:51;;;;;;;6.47;5.80;;;;;;;22.75;100.00;96102.97;5044044;28;20069;-50
2022/06/05 06:07:20;;;;;;;6.95;5.97;;;;;;;22.88;100.00;96128.84;5044810;28;20056;-50
2022/06/05 06:09:49;;;;;;;8.32;6.25;;;;;;;23.06;100.00;96127.97;5047293;28;20072;-46
2022/06/05 06:12:23;;;;;;;7.00;5.95;;;;;;;22.89;100.00;96133.16;5047270;28;20087;-45
2022/06/05 06:14:53;;;;;;;7.35;5.97;;;;;;;22.40;100.00;96126.19;5048100;28;20095;-45
2022/06/05 06:17:22;;;;;;;6.68;5.63;;;;;;;22.19;100.00;96122.13;5046178;28;20076;-45
2022/06/05 06:19:50;;;;;;;7.63;6.05;;;;;;;22.73;100.00;96126.56;5047765;28;20084;-44
2022/06/05 06:22:19;;;;;;;8.80;6.68;;;;;;;22.89;100.00;96118.91;5047185;28;20065;-48
2022/06/05 06:24:48;;;;;;;6.78;6.18;;;;;;;22.83;100.00;96112.56;5047098;28;20088;-44
2022/06/05 06:27:16;;;;;;;7.22;6.60;;;;;;;22.58;100.00;96107.34;5047414;28;20065;-46
2022/06/05 06:29:45;;;;;;;8.68;6.10;;;;;;;22.31;100.00;96100.72;5045070;28;20075;-46
2022/06/05 06:32:15;;;;;;;7.63;6.88;;;;;;;22.53;100.00;96101.81;5048171;28;20057;-49
2022/06/05 06:34:43;;;;;;;7.93;6.70;;;;;;;22.45;100.00;96096.78;5045646;28;20695;-46
2022/06/05 06:37:11;;;;;;;7.30;6.57;;;;;;;23.01;100.00;96094.72;5048357;28;20087;-50
2022/06/05 06:39:40;;;;;;;8.45;6.43;;;;;;;22.46;100.00;96093.03;5048215;28;20076;-48
2022/06/05 06:42:08;;;;;;;7.20;6.47;;;;;;;22.64;100.00;96097.53;5048483;28;20072;-49
2022/06/05 06:44:36;;;;;;;8.05;6.82;;;;;;;23.24;100.00;96093.94;5047883;28;20056;-48
2022/06/05 06:47:05;;;;;;;7.75;6.03;;;;;;;23.10;100.00;96096.84;5046880;28;20068;-46
2022/06/05 06:49:35;;;;;;;6.78;6.10;;;;;;;22.96;100.00;96109.69;5047478;28;20125;-46
2022/06/05 06:52:05;;;;;;;7.25;6.53;;;;;;;22.91;100.00;96120.28;5048512;28;20534;-47
2022/06/05 06:54:33;;;;;;;7.35;6.53;;;;;;;23.10;100.00;96120.25;5045409;28;20072;-46
2022/06/05 06:57:01;;;;;;;7.60;6.53;;;;;;;22.92;100.00;96111.22;5046822;28;20056;-50
2022/06/05 06:59:30;;;;;;;7.47;6.70;;;;;;;23.26;100.00;96118.72;5046059;28;20072;-47
2022/06/05 07:01:58;;;;;;;7.20;6.53;;;;;;;23.14;100.00;96129.47;5048725;28;20076;-57
2022/06/05 07:04:27;;;;;;;7.78;6.97;;;;;;;23.51;100.00;96124.72;5048718;28;20110;-51
2022/06/05 07:06:57;;;;;;;8.05;6.13;;;;;;;23.11;100.00;96133.44;5047904;28;20072;-54
2022/06/05 07:09:25;;;;;;;7.65;6.93;;;;;;;23.14;100.00;96134.88;5045067;28;20076;-49
2022/06/05 07:11:54;;;;;;;7.50;6.80;;;;;;;23.01;100.00;96127.00;5045909;28;21963;-51
2022/06/05 07:14:22;;;;;;;8.45;6.65;;;;;;;23.62;100.00;96120.38;5046430;28;20056;-49
2022/06/05 07:16:51;;;;;;;7.85;7.15;;;;;;;23.07;100.00;96124.22;5046933;28;20459;-47
2022/06/05 07:19:20;;;;;;;8.20;7.40;;;;;;;23.32;100.00;96126.69;5047316;28;20087;-49
2022/06/05 07:21:48;;;;;;;7.97;7.32;;;;;;;23.21;100.00;96114.88;5047582;28;20068;-50
2022/06/05 07:24:18;;;;;;;8.38;7.03;;;;;;;23.26;100.00;96122.22;5045399;28;20060;-52
2022/06/05 07:26:46;;;;;;;9.07;7.80;;;;;;;23.24;100.00;96110.91;5047485;28;20558;-53
2022/06/05 07:29:15;;;;;;;9.73;7.53;;;;;;;23.48;100.00;96103.66;5046132;28;20073;-47
2022/06/05 07:31:43;;;;;;;7.82;6.90;;;;;;;23.16;100.00;96124.72;5045724;28;20420;-49
2022/06/05 07:34:12;;;;;;;11.68;7.85;;;;;;;23.32;100.00;96152.78;5048711;28;20072;-53
2022/06/05 07:36:40;;;;;;;9.27;8.00;;;;;;;24.83;100.00;96169.78;5050827;28;20076;-53
2022/06/05 07:39:09;;;;;;;10.65;8.18;;;;;;;25.36;100.00;96210.94;5045572;28;20041;-47
2022/06/05 07:41:39;;;;;;;9.13;7.60;;;;;;;25.51;100.00;96267.09;5049902;28;20075;-46
2022/06/05 07:44:08;;;;;;;8.30;7.35;;;;;;;25.50;100.00;96278.97;5045106;28;20065;-47
2022/06/05 07:46:37;;;;;;;8.30;6.90;;;;;;;26.07;100.00;96273.41;5043595;28;20083;-45
2022/06/05 07:49:06;;;;;;;7.95;7.15;;;;;;;26.43;100.00;96246.91;5050245;28;20081;-49
2022/06/05 07:54:31;;;;;;;9.65;7.70;;;;;;;26.46;100.00;96268.84;5049443;28;20164;-50
2022/06/05 07:57:03;;;;;;;7.90;7.15;;;;;;;27.17;100.00;96281.66;5043726;28;20065;-49
2022/06/05 07:59:34;;;;;;;7.78;7.07;;;;;;;26.97;100.00;96284.91;5047611;28;20691;-49
2022/06/05 08:02:04;;;;;;;8.27;7.13;;;;;;;26.61;100.00;96289.91;5048544;28;20079;-52
2022/06/05 08:04:35;;;;;;;7.65;6.88;;;;;;;27.03;100.00;96291.22;5047938;28;20064;-43
2022/06/05 08:07:05;;;;;;;8.88;7.05;;;;;;;26.83;100.00;96284.50;5050211;28;20079;-49
2022/06/05 08:09:34;;;;;;;9.27;7.90;;;;;;;26.92;100.00;96280.28;5050243;28;20080;-45
2022/06/05 08:12:05;;;;;;;8.32;7.53;;;;;;;26.95;100.00;96298.72;5050019;28;20077;-50
2022/06/05 08:14:35;;;;;;;8.35;7.43;;;;;;;27.27;100.00;96295.31;5046272;28;20061;-48
2022/06/05 08:17:05;;;;;;;9.40;7.10;;;;;;;27.31;100.00;96285.59;5050502;28;20075;-48
2022/06/05 08:19:37;;;;;;;8.20;7.32;;;;;;;27.42;100.00;96290.03;5045264;28;20451;-54
2022/06/05 08:22:06;;;;;;;8.90;8.00;;;;;;;27.38;100.00;96299.75;5049901;28;20083;-50
2022/06/05 08:24:34;;;;;;;8.50;7.63;;;;;;;27.10;100.00;96279.13;5046503;28;20103;-45
2022/06/05 08:27:12;;;;;;;8.48;6.72;;;;;;;26.17;100.00;96286.28;5049515;28;20526;-46
2022/06/05 08:29:41;;;;;;;9.02;6.20;;;;;;;25.71;100.00;96294.44;5048745;28;20072;-49
2022/06/05 08:32:11;;;;;;;8.07;6.90;;;;;;;25.90;100.00;96289.63;5049391;28;20088;-48
2022/06/05 08:34:39;;;;;;;6.70;6.10;;;;;;;25.93;100.00;96301.84;5046883;28;20056;-52
2022/06/05 08:42:51;;;;;;;7.10;6.40;;;;;;;25.26;100.00;96316.88;5046860;28;20307;-50
2022/06/05 08:45:24;;;;;;;7.35;6.15;;;;;;;25.32;100.00;96301.56;5045880;28;20079;-50
2022/06/05 08:47:57;;;;;;;7.82;6.07;;;;;;;25.19;100.00;96291.91;5048335;28;20064;-53
2022/06/05 08:50:31;;;;;;;7.25;6.55;;;;;;;25.34;100.00;96281.38;5046122;28;20450;-47
2022/06/05 08:53:04;;;;;;;7.95;7.15;;;;;;;25.77;100.00;96281.81;5046664;28;20515;-50
2022/06/05 08:55:34;;;;;;;8.65;7.43;;;;;;;25.86;100.00;96280.41;5046389;28;20061;-53
2022/06/05 08:58:05;;;;;;;;;;;;;;;25.89;100.00;96277.22;5049210;28;20081;-49
2022/06/05 09:00:37;;;;;;;10.13;7.30;;;;;;;26.24;100.00;96268.00;5046974;28;19953;-48
2022/06/05 09:03:08;;;;;;;8.90;7.18;;;;;;;26.42;100.00;96245.25;5046877;28;20060;-51
2022/06/05 09:05:39;;;;;;;14.80;7.28;;;;;;;26.43;100.00;96225.28;5048256;28;20080;-51
2022/06/05 09:08:12;;;;;;;8.43;7.63;;;;;;;26.20;100.00;96223.59;5048955;28;20522;-53
2022/06/05 09:10:44;;;;;;;8.63;7.78;;;;;;;26.02;100.00;96236.34;5047513;28;20451;-49
2022/06/05 09:13:16;;;;;;;8.00;7.28;;;;;;;25.90;100.00;96257.22;5048039;28;20107;-48
2022/06/05 09:15:48;;;;;;;7.57;6.88;;;;;;;25.74;100.00;96271.50;5047013;28;20461;-48
2022/06/05 09:18:19;;;;;;;8.45;7.63;;;;;;;26.15;100.00;96281.13;5043923;28;20067;-53
2022/06/05 09:20:51;;;;;;;9.15;7.40;;;;;;;25.77;100.00;96271.03;5042685;28;20053;-50
2022/06/05 09:23:29;;;;;;;8.98;7.97;;;;;;;26.02;100.00;96282.28;5044623;28;20064;-48
2022/06/05 09:26:03;;;;;;;9.65;7.95;;;;;;;25.88;100.00;96280.97;5043591;28;20071;-46
2022/06/05 09:28:55;;;;;;;11.07;7.32;;;;;;;25.90;100.00;96280.72;5042711;28;20064;-49
2022/06/05 09:32:05;;;;;;;10.77;9.75;;;;;;;26.56;100.00;96272.78;5043967;28;20537;-50
2022/06/05 09:34:37;;;;;;;17.73;15.90;;;;;;;26.44;100.00;96264.75;5044385;28;20046;-49
2022/06/05 09:37:11;;;;;;;62.17;52.35;;;;;;;26.89;100.00;96263.72;5043484;28;20088;-47
2022/06/05 09:39:45;;;;;;;9.82;8.85;;;;;;;26.57;100.00;96263.63;5045460;28;20538;-51
2022/06/05 09:42:39;;;;;;;11.10;9.07;;;;;;;27.21;100.00;96270.06;5044528;28;20068;-50
2022/06/05 09:45:17;;;;;;;10.88;9.88;;;;;;;27.26;100.00;96261.19;5043081;28;20064;-51
2022/06/05 09:47:56;;;;;;;11.00;10.00;;;;;;;27.66;100.00;96260.72;5043670;28;20088;-48
2022/06/05 09:50:27;;;;;;;10.75;9.65;;;;;;;27.54;100.00;96260.09;5044719;28;20068;-46
2022/06/05 09:52:56;;;;;;;11.73;10.55;;;;;;;28.52;100.00;96248.91;5043933;28;20696;-52
2022/06/05 09:55:41;;;;;;;12.50;11.35;;;;;;;27.97;100.00;96258.31;5044613;28;20068;-53
2022/06/05 09:58:25;;;;;;;12.48;11.27;;;;;;;28.14;100.00;96258.16;5039826;28;20077;-49
2022/06/05 10:00:56;;;;;;;68.57;61.13;;;;;;;27.90;100.00;96255.00;5041832;28;20640;-46
2022/06/05 10:03:29;;;;;;;266.58;227.68;;;;;;;27.92;100.00;96271.84;5023710;28;20432;-56
2022/06/05 10:06:21;;;;;;;14.50;13.05;;;;;;;28.42;100.00;96269.75;5038954;28;20065;-46
2022/06/05 10:08:53;;;;;;;12.68;11.57;;;;;;;28.47;100.00;96267.88;5043914;28;20423;-51
2022/06/05 10:11:28;;;;;;;17.00;14.90;;;;;;;28.16;100.00;96270.38;5043005;28;20073;-48
2022/06/05 10:14:08;;;;;;;12.90;11.40;;;;;;;27.62;100.00;96265.03;5043253;28;20064;-47
2022/06/05 10:16:45;;;;;;;;;;;;;;;28.82;100.00;96267.22;5042349;28;20068;-47
2022/06/05 10:19:32;;;;;;;20.65;17.58;;;;;;;29.48;100.00;96257.66;5043732;28;19959;-53
2022/06/05 10:22:08;;;;;;;14.32;12.93;;;;;;;28.08;100.00;96262.75;5041882;28;20095;-50
2022/06/05 10:24:44;;;;;;;15.98;14.45;;;;;;;28.27;100.00;96251.47;5042635;28;20084;-49
2022/06/05 10:27:14;;;;;;;14.65;13.25;;;;;;;28.78;100.00;96239.00;5041112;28;20178;-50
2022/06/05 10:29:47;;;;;;;18.40;16.45;;;;;;;28.60;100.00;96229.41;5044781;28;20065;-48
2022/06/05 10:32:22;;;;;;;15.25;13.68;;;;;;;28.02;100.00;96230.44;5043015;28;20045;-46
2022/06/05 10:34:55;;;;;;;14.52;12.65;;;;;;;28.08;100.00;96235.63;5044987;28;20095;-49
2022/06/05 10:37:26;;;;;;;14.73;13.35;;;;;;;28.27;100.00;96233.28;5044165;28;20080;-49
2022/06/05 10:40:05;;;;;;;20.05;18.05;;;;;;;28.22;100.00;96225.13;5045808;28;20081;-55
2022/06/05 10:42:40;;;;;;;14.82;13.32;;;;;;;28.63;100.00;96228.06;5035888;28;21362;-45
2022/06/05 10:45:18;;;;;;;15.07;13.68;;;;;;;29.10;100.00;96224.44;5042430;28;20079;-55
2022/06/05 10:47:59;;;;;;;14.80;13.50;;;;;;;28.86;100.00;96230.31;5044897;28;20057;-55
2022/06/05 10:50:30;;;;;;;15.48;13.98;;;;;;;29.32;100.00;96227.75;5042878;28;20526;-47
2022/06/05 10:53:08;;;;;;;14.93;13.63;;;;;;;28.85;100.00;96220.56;5042221;28;20073;-55
2022/06/05 10:55:46;;;;;;;16.23;14.57;;;;;;;27.99;100.00;96218.22;5047428;28;20065;-49
2022/06/05 10:58:18;;;;;;;14.35;13.05;;;;;;;28.51;100.00;96208.47;5048540;28;20084;-53
2022/06/05 11:01:02;;;;;;;15.23;13.77;;;;;;;28.14;100.00;96202.03;5046208;28;20475;-48
2022/06/05 11:03:45;;;;;;;16.23;14.82;;;;;;;28.70;100.00;96196.09;5040023;28;20413;-47
2022/06/05 11:06:24;;;;;;;15.13;13.73;;;;;;;29.44;100.00;96188.63;5039344;28;20144;-55
2022/06/05 11:09:01;;;;;;;14.82;13.43;;;;;;;29.69;100.00;96185.13;5039253;28;20460;-45
2022/06/05 11:14:39;;;;;;;14.60;13.30;;;;;;;28.73;100.00;96183.88;5043194;28;20114;-52
2022/06/05 11:17:23;;;;;;;14.68;13.25;;;;;;;29.20;100.00;96180.19;5041697;28;20064;-49
2022/06/05 11:20:01;;;;;;;14.82;13.43;;;;;;;28.92;100.00;96174.16;5043648;28;20071;-47
2022/06/05 11:22:30;;;;;;;14.07;12.82;;;;;;;29.21;100.00;96162.81;5042247;28;20072;-53
2022/06/05 11:25:11;;;;;;;13.68;12.50;;;;;;;29.90;100.00;96156.81;5043041;28;20110;-51
2022/06/05 11:27:46;;;;;;;13.85;12.45;;;;;;;29.49;100.00;96150.59;5042327;28;20554;-50
2022/06/05 11:30:19;;;;;;;14.52;13.13;;;;;;;28.90;100.00;96137.50;5044663;28;20077;-49
2022/06/05 11:32:53;;;;;;;14.38;13.00;;;;;;;28.37;100.00;96138.41;5046955;28;20072;-51
2022/06/05 11:35:31;;;;;;;13.25;12.05;;;;;;;28.71;100.00;96139.91;5043495;28;20551;-47
2022/06/05 11:38:04;;;;;;;14.02;12.70;;;;;;;28.47;100.00;96126.00;5044490;28;20065;-54
2022/06/05 11:40:45;;;;;;;14.75;13.15;;;;;;;28.29;100.00;96135.41;5048342;28;20114;-49
2022/06/05 11:43:23;;;;;;;13.60;12.30;;;;;;;29.30;100.00;96131.31;5046428;28;20064;-54
2022/06/05 11:46:15;;;;;;;12.68;11.48;;;;;;;28.98;100.00;96110.63;5045987;28;20069;-54
2022/06/05 11:48:46;;;;;;;12.90;11.80;;;;;;;29.37;100.00;96103.88;5044608;28;20797;-50
2022/06/05 11:51:22;;;;;;;12.57;11.48;;;;;;;30.15;100.00;96108.91;5046833;28;20515;-52
2022/06/05 11:53:57;;;;;;;12.93;11.63;;;;;;;29.99;100.00;96111.66;5045527;28;20240;-56
2022/06/05 11:56:37;;;;;;;13.50;12.13;;;;;;;29.01;100.00;96106.59;5044669;28;20779;-54